sensor_id;sensor_type;location;lat;lon;timestamp;P1;durP1;ratioP1;P2;durP2;ratioP2
74959;SDS011;63518;49.572;1.106;2023-06-10T00:00:44;8.02;;;3.80;;
74959;SDS011;63518;49.572;1.106;2023-06-10T00:03:11;8.88;;;3.92;;
74959;SDS011;63518;49.572;1.106;2023-06-10T00:05:40;8.32;;;4.10;;
74959;SDS011;63518;49.572;1.106;2023-06-10T00:08:07;7.63;;;3.83;;
74959;SDS011;63518;49.572;1.106;2023-06-10T00:10:34;8.57;;;4.05;;
74959;SDS011;63518;49.572;1.106;2023-06-10T00:13:05;7.75;;;3.63;;
74959;SDS011;63518;49.572;1.106;2023-06-10T00:15:37;8.90;;;3.70;;
74959;SDS011;63518;49.572;1.106;2023-06-10T00:18:04;8.75;;;4.22;;
74959;SDS011;63518;49.572;1.106;2023-06-10T00:20:32;7.28;;;3.42;;
74959;SDS011;63518;49.572;1.106;2023-06-10T00:22:59;7.25;;;3.50;;
74959;SDS011;63518;49.572;1.106;2023-06-10T00:25:27;7.65;;;3.63;;
74959;SDS011;63518;49.572;1.106;2023-06-10T00:27:54;9.70;;;3.70;;
74959;SDS011;63518;49.572;1.106;2023-06-10T00:30:22;7.25;;;3.25;;
74959;SDS011;63518;49.572;1.106;2023-06-10T00:32:48;7.18;;;3.83;;
74959;SDS011;63518;49.572;1.106;2023-06-10T00:35:15;8.07;;;3.78;;
74959;SDS011;63518;49.572;1.106;2023-06-10T00:37:42;7.18;;;3.90;;
74959;SDS011;63518;49.572;1.106;2023-06-10T00:40:09;8.07;;;4.18;;
74959;SDS011;63518;49.572;1.106;2023-06-10T00:42:37;8.13;;;3.78;;
74959;SDS011;63518;49.572;1.106;2023-06-10T00:45:05;8.30;;;3.75;;
74959;SDS011;63518;49.572;1.106;2023-06-10T00:47:33;8.15;;;3.85;;
74959;SDS011;63518;49.572;1.106;2023-06-10T00:50:01;7.93;;;3.70;;
74959;SDS011;63518;49.572;1.106;2023-06-10T00:52:29;7.72;;;3.80;;
74959;SDS011;63518;49.572;1.106;2023-06-10T00:54:57;8.82;;;3.58;;
74959;SDS011;63518;49.572;1.106;2023-06-10T00:57:25;8.13;;;3.55;;
74959;SDS011;63518;49.572;1.106;2023-06-10T00:59:53;7.57;;;3.88;;
74959;SDS011;63518;49.572;1.106;2023-06-10T01:02:20;7.47;;;3.65;;
74959;SDS011;63518;49.572;1.106;2023-06-10T01:04:47;7.90;;;3.72;;
74959;SDS011;63518;49.572;1.106;2023-06-10T01:07:21;7.07;;;3.38;;
74959;SDS011;63518;49.572;1.106;2023-06-10T01:10:02;7.25;;;3.28;;
74959;SDS011;63518;49.572;1.106;2023-06-10T01:12:39;7.07;;;3.40;;
74959;SDS011;63518;49.572;1.106;2023-06-10T01:15:16;8.07;;;3.60;;
74959;SDS011;63518;49.572;1.106;2023-06-10T01:20:43;8.23;;;3.40;;
74959;SDS011;63518;49.572;1.106;2023-06-10T01:23:12;6.63;;;3.50;;
74959;SDS011;63518;49.572;1.106;2023-06-10T01:25:40;7.47;;;3.50;;
74959;SDS011;63518;49.572;1.106;2023-06-10T01:28:16;7.18;;;3.72;;
74959;SDS011;63518;49.572;1.106;2023-06-10T01:30:50;7.40;;;3.35;;
74959;SDS011;63518;49.572;1.106;2023-06-10T01:33:26;7.75;;;3.45;;
74959;SDS011;63518;49.572;1.106;2023-06-10T01:35:59;8.93;;;4.00;;
74959;SDS011;63518;49.572;1.106;2023-06-10T01:38:29;9.45;;;3.78;;
74959;SDS011;63518;49.572;1.106;2023-06-10T01:40:59;8.18;;;3.42;;
74959;SDS011;63518;49.572;1.106;2023-06-10T01:43:27;7.63;;;3.58;;
74959;SDS011;63518;49.572;1.106;2023-06-10T01:45:54;8.98;;;4.03;;
74959;SDS011;63518;49.572;1.106;2023-06-10T01:48:21;8.57;;;3.83;;
74959;SDS011;63518;49.572;1.106;2023-06-10T01:50:47;8.05;;;3.70;;
74959;SDS011;63518;49.572;1.106;2023-06-10T01:53:14;8.50;;;3.88;;
74959;SDS011;63518;49.572;1.106;2023-06-10T01:55:41;7.13;;;3.80;;
74959;SDS011;63518;49.572;1.106;2023-06-10T01:58:08;7.55;;;3.47;;
74959;SDS011;63518;49.572;1.106;2023-06-10T02:00:35;8.70;;;4.13;;
74959;SDS011;63518;49.572;1.106;2023-06-10T02:03:02;7.07;;;3.55;;
74959;SDS011;63518;49.572;1.106;2023-06-10T02:05:29;8.23;;;3.53;;
74959;SDS011;63518;49.572;1.106;2023-06-10T02:07:55;6.93;;;3.28;;
74959;SDS011;63518;49.572;1.106;2023-06-10T02:10:22;7.85;;;3.63;;
74959;SDS011;63518;49.572;1.106;2023-06-10T02:12:49;7.45;;;3.50;;
74959;SDS011;63518;49.572;1.106;2023-06-10T02:15:16;7.45;;;3.72;;
74959;SDS011;63518;49.572;1.106;2023-06-10T02:17:43;7.40;;;3.22;;
74959;SDS011;63518;49.572;1.106;2023-06-10T02:20:11;7.78;;;3.83;;
74959;SDS011;63518;49.572;1.106;2023-06-10T02:22:38;7.78;;;3.72;;
74959;SDS011;63518;49.572;1.106;2023-06-10T02:25:05;7.88;;;4.25;;
74959;SDS011;63518;49.572;1.106;2023-06-10T02:27:33;7.07;;;3.55;;
74959;SDS011;63518;49.572;1.106;2023-06-10T02:29:59;8.43;;;4.07;;
74959;SDS011;63518;49.572;1.106;2023-06-10T02:32:26;6.90;;;3.78;;
74959;SDS011;63518;49.572;1.106;2023-06-10T02:34:54;8.48;;;4.10;;
74959;SDS011;63518;49.572;1.106;2023-06-10T02:37:21;7.80;;;4.18;;
74959;SDS011;63518;49.572;1.106;2023-06-10T02:39:48;8.38;;;3.90;;
74959;SDS011;63518;49.572;1.106;2023-06-10T02:42:15;9.35;;;4.13;;
74959;SDS011;63518;49.572;1.106;2023-06-10T02:44:42;8.65;;;4.25;;
74959;SDS011;63518;49.572;1.106;2023-06-10T02:47:08;7.72;;;3.80;;
74959;SDS011;63518;49.572;1.106;2023-06-10T02:49:35;8.57;;;4.45;;
74959;SDS011;63518;49.572;1.106;2023-06-10T02:52:02;9.55;;;3.97;;
74959;SDS011;63518;49.572;1.106;2023-06-10T02:54:29;8.90;;;4.40;;
74959;SDS011;63518;49.572;1.106;2023-06-10T02:56:56;9.75;;;4.43;;
74959;SDS011;63518;49.572;1.106;2023-06-10T02:59:23;7.78;;;3.88;;
74959;SDS011;63518;49.572;1.106;2023-06-10T03:01:49;10.02;;;4.43;;
74959;SDS011;63518;49.572;1.106;2023-06-10T03:04:16;8.95;;;3.55;;
74959;SDS011;63518;49.572;1.106;2023-06-10T03:06:43;9.25;;;3.67;;
74959;SDS011;63518;49.572;1.106;2023-06-10T03:09:12;8.45;;;4.32;;
74959;SDS011;63518;49.572;1.106;2023-06-10T03:11:39;8.95;;;4.47;;
74959;SDS011;63518;49.572;1.106;2023-06-10T03:14:06;8.23;;;4.03;;
74959;SDS011;63518;49.572;1.106;2023-06-10T03:16:33;7.78;;;3.67;;
74959;SDS011;63518;49.572;1.106;2023-06-10T03:19:00;7.18;;;3.78;;
74959;SDS011;63518;49.572;1.106;2023-06-10T03:21:27;8.20;;;3.80;;
74959;SDS011;63518;49.572;1.106;2023-06-10T03:23:54;7.40;;;3.67;;
74959;SDS011;63518;49.572;1.106;2023-06-10T03:26:21;7.28;;;3.72;;
74959;SDS011;63518;49.572;1.106;2023-06-10T03:28:48;9.25;;;3.78;;
74959;SDS011;63518;49.572;1.106;2023-06-10T03:31:15;7.90;;;3.70;;
74959;SDS011;63518;49.572;1.106;2023-06-10T03:33:43;8.25;;;3.97;;
74959;SDS011;63518;49.572;1.106;2023-06-10T03:36:10;8.20;;;4.00;;
74959;SDS011;63518;49.572;1.106;2023-06-10T03:38:37;8.15;;;3.67;;
74959;SDS011;63518;49.572;1.106;2023-06-10T03:41:04;9.02;;;3.95;;
74959;SDS011;63518;49.572;1.106;2023-06-10T03:43:31;8.00;;;3.70;;
74959;SDS011;63518;49.572;1.106;2023-06-10T03:45:57;7.60;;;3.60;;
74959;SDS011;63518;49.572;1.106;2023-06-10T03:48:25;9.38;;;4.28;;
74959;SDS011;63518;49.572;1.106;2023-06-10T03:50:51;6.63;;;3.33;;
74959;SDS011;63518;49.572;1.106;2023-06-10T03:53:19;7.53;;;3.78;;
74959;SDS011;63518;49.572;1.106;2023-06-10T03:55:45;8.80;;;3.67;;
74959;SDS011;63518;49.572;1.106;2023-06-10T03:58:12;8.68;;;4.22;;
74959;SDS011;63518;49.572;1.106;2023-06-10T04:00:41;10.77;;;4.18;;
74959;SDS011;63518;49.572;1.106;2023-06-10T04:03:08;8.13;;;3.97;;
74959;SDS011;63518;49.572;1.106;2023-06-10T04:05:41;8.18;;;4.30;;
74959;SDS011;63518;49.572;1.106;2023-06-10T04:08:08;10.13;;;3.78;;
74959;SDS011;63518;49.572;1.106;2023-06-10T04:10:35;8.65;;;4.47;;
74959;SDS011;63518;49.572;1.106;2023-06-10T04:13:02;8.90;;;3.70;;
74959;SDS011;63518;49.572;1.106;2023-06-10T04:15:30;9.02;;;4.10;;
74959;SDS011;63518;49.572;1.106;2023-06-10T04:17:59;7.80;;;4.00;;
74959;SDS011;63518;49.572;1.106;2023-06-10T04:20:27;7.32;;;3.90;;
74959;SDS011;63518;49.572;1.106;2023-06-10T04:22:54;8.60;;;3.85;;
74959;SDS011;63518;49.572;1.106;2023-06-10T04:25:21;10.27;;;3.92;;
74959;SDS011;63518;49.572;1.106;2023-06-10T04:27:48;8.52;;;4.43;;
74959;SDS011;63518;49.572;1.106;2023-06-10T04:30:16;8.50;;;3.85;;
74959;SDS011;63518;49.572;1.106;2023-06-10T04:32:43;9.20;;;4.10;;
74959;SDS011;63518;49.572;1.106;2023-06-10T04:35:13;7.45;;;3.58;;
74959;SDS011;63518;49.572;1.106;2023-06-10T04:37:42;10.20;;;4.05;;
74959;SDS011;63518;49.572;1.106;2023-06-10T04:40:09;8.27;;;4.13;;
74959;SDS011;63518;49.572;1.106;2023-06-10T04:42:36;9.70;;;3.80;;
74959;SDS011;63518;49.572;1.106;2023-06-10T04:45:03;10.77;;;4.30;;
74959;SDS011;63518;49.572;1.106;2023-06-10T04:47:30;9.20;;;4.05;;
74959;SDS011;63518;49.572;1.106;2023-06-10T04:50:00;7.32;;;3.35;;
74959;SDS011;63518;49.572;1.106;2023-06-10T04:52:27;9.68;;;4.60;;
74959;SDS011;63518;49.572;1.106;2023-06-10T04:54:54;9.45;;;4.53;;
74959;SDS011;63518;49.572;1.106;2023-06-10T04:57:21;8.57;;;4.05;;
74959;SDS011;63518;49.572;1.106;2023-06-10T04:59:48;9.02;;;3.95;;
74959;SDS011;63518;49.572;1.106;2023-06-10T05:02:15;9.45;;;4.70;;
74959;SDS011;63518;49.572;1.106;2023-06-10T05:04:42;8.93;;;4.43;;
74959;SDS011;63518;49.572;1.106;2023-06-10T05:07:09;9.05;;;4.22;;
74959;SDS011;63518;49.572;1.106;2023-06-10T05:09:36;7.30;;;3.58;;
74959;SDS011;63518;49.572;1.106;2023-06-10T05:12:03;8.32;;;4.03;;
74959;SDS011;63518;49.572;1.106;2023-06-10T05:14:31;8.52;;;4.40;;
74959;SDS011;63518;49.572;1.106;2023-06-10T05:16:58;9.90;;;4.68;;
74959;SDS011;63518;49.572;1.106;2023-06-10T05:19:25;9.77;;;4.25;;
74959;SDS011;63518;49.572;1.106;2023-06-10T05:21:52;9.98;;;4.45;;
74959;SDS011;63518;49.572;1.106;2023-06-10T05:24:18;10.07;;;5.03;;
74959;SDS011;63518;49.572;1.106;2023-06-10T05:26:46;10.38;;;4.50;;
74959;SDS011;63518;49.572;1.106;2023-06-10T05:29:14;9.40;;;4.75;;
74959;SDS011;63518;49.572;1.106;2023-06-10T05:31:44;9.25;;;4.70;;
74959;SDS011;63518;49.572;1.106;2023-06-10T05:34:11;9.57;;;4.32;;
74959;SDS011;63518;49.572;1.106;2023-06-10T05:36:38;9.57;;;3.95;;
74959;SDS011;63518;49.572;1.106;2023-06-10T05:39:05;8.95;;;4.15;;
74959;SDS011;63518;49.572;1.106;2023-06-10T05:41:32;8.00;;;4.25;;
74959;SDS011;63518;49.572;1.106;2023-06-10T05:43:59;10.88;;;4.20;;
74959;SDS011;63518;49.572;1.106;2023-06-10T05:46:26;10.65;;;4.40;;
74959;SDS011;63518;49.572;1.106;2023-06-10T05:48:53;8.95;;;4.18;;
74959;SDS011;63518;49.572;1.106;2023-06-10T05:51:20;8.50;;;4.20;;
74959;SDS011;63518;49.572;1.106;2023-06-10T05:53:46;8.57;;;3.88;;
74959;SDS011;63518;49.572;1.106;2023-06-10T05:56:14;10.30;;;4.57;;
74959;SDS011;63518;49.572;1.106;2023-06-10T05:58:41;9.50;;;4.00;;
74959;SDS011;63518;49.572;1.106;2023-06-10T06:01:07;7.82;;;4.32;;
74959;SDS011;63518;49.572;1.106;2023-06-10T06:03:34;10.50;;;4.32;;
74959;SDS011;63518;49.572;1.106;2023-06-10T06:06:02;9.85;;;4.55;;
74959;SDS011;63518;49.572;1.106;2023-06-10T06:08:29;9.27;;;4.40;;
74959;SDS011;63518;49.572;1.106;2023-06-10T06:10:56;9.48;;;4.47;;
74959;SDS011;63518;49.572;1.106;2023-06-10T06:13:23;9.70;;;4.82;;
74959;SDS011;63518;49.572;1.106;2023-06-10T06:15:50;10.65;;;5.03;;
74959;SDS011;63518;49.572;1.106;2023-06-10T06:18:17;11.65;;;5.47;;
74959;SDS011;63518;49.572;1.106;2023-06-10T06:20:45;8.63;;;4.55;;
74959;SDS011;63518;49.572;1.106;2023-06-10T06:23:12;9.77;;;4.75;;
74959;SDS011;63518;49.572;1.106;2023-06-10T06:25:38;8.82;;;4.55;;
74959;SDS011;63518;49.572;1.106;2023-06-10T06:28:06;9.75;;;5.10;;
74959;SDS011;63518;49.572;1.106;2023-06-10T06:30:34;9.70;;;4.32;;
74959;SDS011;63518;49.572;1.106;2023-06-10T06:33:01;9.55;;;4.88;;
74959;SDS011;63518;49.572;1.106;2023-06-10T06:35:32;10.52;;;4.78;;
74959;SDS011;63518;49.572;1.106;2023-06-10T06:38:00;10.40;;;4.63;;
74959;SDS011;63518;49.572;1.106;2023-06-10T06:40:27;10.32;;;5.07;;
74959;SDS011;63518;49.572;1.106;2023-06-10T06:42:54;10.20;;;4.85;;
74959;SDS011;63518;49.572;1.106;2023-06-10T06:45:21;9.15;;;4.53;;
74959;SDS011;63518;49.572;1.106;2023-06-10T06:47:48;9.68;;;5.38;;
74959;SDS011;63518;49.572;1.106;2023-06-10T06:50:15;8.02;;;4.45;;
74959;SDS011;63518;49.572;1.106;2023-06-10T06:52:42;10.45;;;5.68;;
74959;SDS011;63518;49.572;1.106;2023-06-10T06:55:09;9.00;;;4.85;;
74959;SDS011;63518;49.572;1.106;2023-06-10T06:57:36;10.18;;;4.90;;
74959;SDS011;63518;49.572;1.106;2023-06-10T07:00:03;10.05;;;5.32;;
74959;SDS011;63518;49.572;1.106;2023-06-10T07:02:31;9.98;;;5.13;;
74959;SDS011;63518;49.572;1.106;2023-06-10T07:05:01;10.13;;;5.10;;
74959;SDS011;63518;49.572;1.106;2023-06-10T07:07:28;10.48;;;4.85;;
74959;SDS011;63518;49.572;1.106;2023-06-10T07:09:55;10.23;;;5.10;;
74959;SDS011;63518;49.572;1.106;2023-06-10T07:12:22;9.55;;;4.82;;
74959;SDS011;63518;49.572;1.106;2023-06-10T07:14:50;8.93;;;4.85;;
74959;SDS011;63518;49.572;1.106;2023-06-10T07:17:17;9.02;;;4.65;;
74959;SDS011;63518;49.572;1.106;2023-06-10T07:19:45;8.38;;;3.83;;
74959;SDS011;63518;49.572;1.106;2023-06-10T07:22:12;8.32;;;4.15;;
74959;SDS011;63518;49.572;1.106;2023-06-10T07:24:39;10.52;;;4.78;;
74959;SDS011;63518;49.572;1.106;2023-06-10T07:27:06;9.90;;;5.00;;
74959;SDS011;63518;49.572;1.106;2023-06-10T07:29:33;10.40;;;4.95;;
74959;SDS011;63518;49.572;1.106;2023-06-10T07:32:03;9.57;;;4.95;;
74959;SDS011;63518;49.572;1.106;2023-06-10T07:34:30;8.13;;;4.55;;
74959;SDS011;63518;49.572;1.106;2023-06-10T07:36:57;8.80;;;4.65;;
74959;SDS011;63518;49.572;1.106;2023-06-10T07:39:24;10.70;;;5.30;;
74959;SDS011;63518;49.572;1.106;2023-06-10T07:41:51;9.18;;;4.43;;
74959;SDS011;63518;49.572;1.106;2023-06-10T07:44:20;8.55;;;4.63;;
74959;SDS011;63518;49.572;1.106;2023-06-10T07:46:47;8.35;;;4.38;;
74959;SDS011;63518;49.572;1.106;2023-06-10T07:49:14;9.57;;;4.82;;
74959;SDS011;63518;49.572;1.106;2023-06-10T07:51:41;9.95;;;4.53;;
74959;SDS011;63518;49.572;1.106;2023-06-10T07:54:08;10.15;;;4.47;;
74959;SDS011;63518;49.572;1.106;2023-06-10T07:56:35;8.68;;;4.90;;
74959;SDS011;63518;49.572;1.106;2023-06-10T07:59:02;10.02;;;5.07;;
74959;SDS011;63518;49.572;1.106;2023-06-10T08:01:29;9.13;;;4.22;;
74959;SDS011;63518;49.572;1.106;2023-06-10T08:03:57;10.63;;;5.03;;
74959;SDS011;63518;49.572;1.106;2023-06-10T08:06:25;8.98;;;4.50;;
74959;SDS011;63518;49.572;1.106;2023-06-10T08:08:52;9.57;;;5.38;;
74959;SDS011;63518;49.572;1.106;2023-06-10T08:11:19;9.45;;;4.68;;
74959;SDS011;63518;49.572;1.106;2023-06-10T08:13:46;9.70;;;4.88;;
74959;SDS011;63518;49.572;1.106;2023-06-10T08:16:13;8.63;;;4.85;;
74959;SDS011;63518;49.572;1.106;2023-06-10T08:18:40;10.05;;;4.57;;
74959;SDS011;63518;49.572;1.106;2023-06-10T08:21:07;7.88;;;4.13;;
74959;SDS011;63518;49.572;1.106;2023-06-10T08:23:34;7.60;;;3.92;;
74959;SDS011;63518;49.572;1.106;2023-06-10T08:26:01;9.10;;;3.70;;
74959;SDS011;63518;49.572;1.106;2023-06-10T08:28:28;7.35;;;3.72;;
74959;SDS011;63518;49.572;1.106;2023-06-10T08:30:54;7.57;;;3.75;;
74959;SDS011;63518;49.572;1.106;2023-06-10T08:33:23;6.30;;;3.08;;
74959;SDS011;63518;49.572;1.106;2023-06-10T08:35:50;10.00;;;4.25;;
74959;SDS011;63518;49.572;1.106;2023-06-10T08:38:17;6.93;;;3.65;;
74959;SDS011;63518;49.572;1.106;2023-06-10T08:40:44;8.63;;;3.78;;
74959;SDS011;63518;49.572;1.106;2023-06-10T08:43:22;8.20;;;3.92;;
74959;SDS011;63518;49.572;1.106;2023-06-10T08:45:59;7.68;;;3.47;;
74959;SDS011;63518;49.572;1.106;2023-06-10T08:48:30;7.70;;;3.67;;
74959;SDS011;63518;49.572;1.106;2023-06-10T08:51:01;7.50;;;4.22;;
74959;SDS011;63518;49.572;1.106;2023-06-10T08:53:32;7.82;;;3.33;;
74959;SDS011;63518;49.572;1.106;2023-06-10T08:56:03;8.32;;;3.83;;
74959;SDS011;63518;49.572;1.106;2023-06-10T08:58:32;7.68;;;3.25;;
74959;SDS011;63518;49.572;1.106;2023-06-10T09:01:01;6.88;;;3.30;;
74959;SDS011;63518;49.572;1.106;2023-06-10T09:06:13;6.97;;;3.00;;
74959;SDS011;63518;49.572;1.106;2023-06-10T09:08:43;5.35;;;2.20;;
74959;SDS011;63518;49.572;1.106;2023-06-10T09:11:10;5.88;;;2.80;;
74959;SDS011;63518;49.572;1.106;2023-06-10T09:13:37;6.07;;;2.70;;
74959;SDS011;63518;49.572;1.106;2023-06-10T09:16:07;8.40;;;2.80;;
74959;SDS011;63518;49.572;1.106;2023-06-10T09:18:34;7.57;;;2.60;;
74959;SDS011;63518;49.572;1.106;2023-06-10T09:21:01;7.30;;;2.80;;
74959;SDS011;63518;49.572;1.106;2023-06-10T09:23:28;5.80;;;2.00;;
74959;SDS011;63518;49.572;1.106;2023-06-10T09:25:56;7.93;;;2.60;;
74959;SDS011;63518;49.572;1.106;2023-06-10T09:28:24;6.97;;;2.60;;
74959;SDS011;63518;49.572;1.106;2023-06-10T09:31:05;6.28;;;2.75;;
74959;SDS011;63518;49.572;1.106;2023-06-10T09:33:36;7.10;;;3.00;;
74959;SDS011;63518;49.572;1.106;2023-06-10T09:36:05;5.75;;;2.58;;
74959;SDS011;63518;49.572;1.106;2023-06-10T09:38:32;5.18;;;2.40;;
74959;SDS011;63518;49.572;1.106;2023-06-10T09:41:00;5.60;;;2.45;;
74959;SDS011;63518;49.572;1.106;2023-06-10T09:43:38;5.43;;;2.63;;
74959;SDS011;63518;49.572;1.106;2023-06-10T09:46:07;5.88;;;2.10;;
74959;SDS011;63518;49.572;1.106;2023-06-10T09:48:45;5.88;;;2.70;;
74959;SDS011;63518;49.572;1.106;2023-06-10T09:51:13;5.70;;;2.80;;
74959;SDS011;63518;49.572;1.106;2023-06-10T09:53:41;5.38;;;2.30;;
74959;SDS011;63518;49.572;1.106;2023-06-10T09:56:08;5.63;;;2.20;;
74959;SDS011;63518;49.572;1.106;2023-06-10T09:58:37;5.63;;;2.35;;
74959;SDS011;63518;49.572;1.106;2023-06-10T10:01:08;7.60;;;2.35;;
74959;SDS011;63518;49.572;1.106;2023-06-10T10:03:46;7.75;;;2.42;;
74959;SDS011;63518;49.572;1.106;2023-06-10T10:06:15;7.28;;;2.22;;
74959;SDS011;63518;49.572;1.106;2023-06-10T10:08:43;6.03;;;2.65;;
74959;SDS011;63518;49.572;1.106;2023-06-10T10:11:13;7.22;;;2.60;;
74959;SDS011;63518;49.572;1.106;2023-06-10T10:13:44;5.13;;;2.50;;
74959;SDS011;63518;49.572;1.106;2023-06-10T10:16:14;5.53;;;2.33;;
74959;SDS011;63518;49.572;1.106;2023-06-10T10:18:45;5.38;;;2.50;;
74959;SDS011;63518;49.572;1.106;2023-06-10T10:21:23;7.78;;;2.80;;
74959;SDS011;63518;49.572;1.106;2023-06-10T10:23:57;5.60;;;2.60;;
74959;SDS011;63518;49.572;1.106;2023-06-10T10:26:31;5.97;;;2.40;;
74959;SDS011;63518;49.572;1.106;2023-06-10T10:29:16;6.10;;;2.92;;
74959;SDS011;63518;49.572;1.106;2023-06-10T10:31:52;6.38;;;2.92;;
74959;SDS011;63518;49.572;1.106;2023-06-10T10:34:57;5.57;;;2.83;;
74959;SDS011;63518;49.572;1.106;2023-06-10T10:37:19;5.80;;;2.58;;
74959;SDS011;63518;49.572;1.106;2023-06-10T10:39:47;6.80;;;3.20;;
74959;SDS011;63518;49.572;1.106;2023-06-10T10:42:15;5.75;;;3.03;;
74959;SDS011;63518;49.572;1.106;2023-06-10T10:44:43;5.85;;;2.75;;
74959;SDS011;63518;49.572;1.106;2023-06-10T10:47:10;5.57;;;2.97;;
74959;SDS011;63518;49.572;1.106;2023-06-10T10:52:12;6.00;;;2.55;;
74959;SDS011;63518;49.572;1.106;2023-06-10T10:54:43;6.57;;;2.80;;
74959;SDS011;63518;49.572;1.106;2023-06-10T10:59:45;7.43;;;3.00;;
74959;SDS011;63518;49.572;1.106;2023-06-10T11:05:07;5.97;;;2.45;;
74959;SDS011;63518;49.572;1.106;2023-06-10T11:07:35;5.35;;;2.53;;
74959;SDS011;63518;49.572;1.106;2023-06-10T11:10:05;7.05;;;2.70;;
74959;SDS011;63518;49.572;1.106;2023-06-10T11:12:55;5.47;;;2.53;;
74959;SDS011;63518;49.572;1.106;2023-06-10T11:15:26;5.80;;;2.22;;
74959;SDS011;63518;49.572;1.106;2023-06-10T11:23:26;5.22;;;2.33;;
74959;SDS011;63518;49.572;1.106;2023-06-10T11:29:02;4.80;;;2.20;;
74959;SDS011;63518;49.572;1.106;2023-06-10T11:31:32;4.88;;;1.92;;
74959;SDS011;63518;49.572;1.106;2023-06-10T11:34:04;4.40;;;1.80;;
74959;SDS011;63518;49.572;1.106;2023-06-10T11:36:37;6.03;;;2.22;;
74959;SDS011;63518;49.572;1.106;2023-06-10T11:39:07;5.20;;;2.17;;
74959;SDS011;63518;49.572;1.106;2023-06-10T11:41:35;5.13;;;2.42;;
74959;SDS011;63518;49.572;1.106;2023-06-10T11:44:03;5.57;;;2.40;;
74959;SDS011;63518;49.572;1.106;2023-06-10T11:46:33;5.22;;;2.20;;
74959;SDS011;63518;49.572;1.106;2023-06-10T11:49:01;5.63;;;2.38;;
74959;SDS011;63518;49.572;1.106;2023-06-10T11:51:32;6.38;;;2.33;;
74959;SDS011;63518;49.572;1.106;2023-06-10T11:54:00;7.45;;;2.65;;
74959;SDS011;63518;49.572;1.106;2023-06-10T11:56:28;5.40;;;2.72;;
74959;SDS011;63518;49.572;1.106;2023-06-10T11:58:57;8.30;;;2.80;;
74959;SDS011;63518;49.572;1.106;2023-06-10T12:01:42;9.35;;;4.30;;
74959;SDS011;63518;49.572;1.106;2023-06-10T12:09:21;5.05;;;2.75;;
74959;SDS011;63518;49.572;1.106;2023-06-10T12:12:02;6.28;;;2.60;;
74959;SDS011;63518;49.572;1.106;2023-06-10T12:19:59;6.07;;;2.50;;
74959;SDS011;63518;49.572;1.106;2023-06-10T12:22:26;5.43;;;2.53;;
74959;SDS011;63518;49.572;1.106;2023-06-10T12:24:57;5.93;;;2.63;;
74959;SDS011;63518;49.572;1.106;2023-06-10T12:27:29;5.80;;;2.53;;
74959;SDS011;63518;49.572;1.106;2023-06-10T12:29:57;6.00;;;2.65;;
74959;SDS011;63518;49.572;1.106;2023-06-10T12:32:44;7.25;;;2.70;;
74959;SDS011;63518;49.572;1.106;2023-06-10T12:35:15;6.00;;;2.67;;
74959;SDS011;63518;49.572;1.106;2023-06-10T12:37:55;6.38;;;2.70;;
74959;SDS011;63518;49.572;1.106;2023-06-10T12:40:39;5.18;;;2.55;;
74959;SDS011;63518;49.572;1.106;2023-06-10T12:43:20;5.13;;;2.25;;
74959;SDS011;63518;49.572;1.106;2023-06-10T12:46:09;6.03;;;3.00;;
74959;SDS011;63518;49.572;1.106;2023-06-10T12:48:49;5.32;;;3.00;;
74959;SDS011;63518;49.572;1.106;2023-06-10T12:51:18;6.05;;;2.90;;
74959;SDS011;63518;49.572;1.106;2023-06-10T12:53:45;5.93;;;2.72;;
74959;SDS011;63518;49.572;1.106;2023-06-10T12:56:12;6.00;;;3.15;;
74959;SDS011;63518;49.572;1.106;2023-06-10T12:58:39;5.82;;;2.83;;
74959;SDS011;63518;49.572;1.106;2023-06-10T13:01:06;5.88;;;2.92;;
74959;SDS011;63518;49.572;1.106;2023-06-10T13:03:33;7.20;;;2.90;;
74959;SDS011;63518;49.572;1.106;2023-06-10T13:06:00;5.88;;;3.03;;
74959;SDS011;63518;49.572;1.106;2023-06-10T13:08:26;7.70;;;3.00;;
74959;SDS011;63518;49.572;1.106;2023-06-10T13:10:53;5.68;;;3.13;;
74959;SDS011;63518;49.572;1.106;2023-06-10T13:13:20;9.48;;;3.28;;
74959;SDS011;63518;49.572;1.106;2023-06-10T13:15:47;7.22;;;2.83;;
74959;SDS011;63518;49.572;1.106;2023-06-10T13:18:16;7.38;;;2.95;;
74959;SDS011;63518;49.572;1.106;2023-06-10T13:20:45;6.00;;;2.90;;
74959;SDS011;63518;49.572;1.106;2023-06-10T13:23:12;6.82;;;3.00;;
74959;SDS011;63518;49.572;1.106;2023-06-10T13:25:40;5.88;;;2.88;;
74959;SDS011;63518;49.572;1.106;2023-06-10T13:28:07;5.97;;;2.97;;
74959;SDS011;63518;49.572;1.106;2023-06-10T13:30:34;8.02;;;3.15;;
74959;SDS011;63518;49.572;1.106;2023-06-10T13:33:01;5.72;;;3.13;;
74959;SDS011;63518;49.572;1.106;2023-06-10T13:35:28;5.82;;;2.85;;
74959;SDS011;63518;49.572;1.106;2023-06-10T13:37:55;4.93;;;2.30;;
74959;SDS011;63518;49.572;1.106;2023-06-10T13:40:21;5.82;;;2.83;;
74959;SDS011;63518;49.572;1.106;2023-06-10T13:42:48;6.30;;;3.15;;
74959;SDS011;63518;49.572;1.106;2023-06-10T13:45:17;5.50;;;2.75;;
74959;SDS011;63518;49.572;1.106;2023-06-10T13:47:44;6.13;;;3.03;;
74959;SDS011;63518;49.572;1.106;2023-06-10T13:50:11;6.03;;;3.08;;
74959;SDS011;63518;49.572;1.106;2023-06-10T13:52:39;5.85;;;3.10;;
74959;SDS011;63518;49.572;1.106;2023-06-10T13:55:06;6.85;;;3.40;;
74959;SDS011;63518;49.572;1.106;2023-06-10T13:57:34;4.90;;;2.50;;
74959;SDS011;63518;49.572;1.106;2023-06-10T14:00:01;6.43;;;3.53;;
74959;SDS011;63518;49.572;1.106;2023-06-10T14:02:28;6.32;;;3.33;;
74959;SDS011;63518;49.572;1.106;2023-06-10T14:04:56;7.20;;;3.35;;
74959;SDS011;63518;49.572;1.106;2023-06-10T14:07:22;6.50;;;3.05;;
74959;SDS011;63518;49.572;1.106;2023-06-10T14:09:49;5.35;;;2.90;;
74959;SDS011;63518;49.572;1.106;2023-06-10T14:12:17;5.47;;;2.95;;
74959;SDS011;63518;49.572;1.106;2023-06-10T14:14:44;6.05;;;3.10;;
74959;SDS011;63518;49.572;1.106;2023-06-10T14:17:11;6.22;;;3.28;;
74959;SDS011;63518;49.572;1.106;2023-06-10T14:19:38;6.60;;;2.85;;
74959;SDS011;63518;49.572;1.106;2023-06-10T14:22:06;7.05;;;3.42;;
74959;SDS011;63518;49.572;1.106;2023-06-10T14:24:34;6.25;;;3.30;;
74959;SDS011;63518;49.572;1.106;2023-06-10T14:27:02;5.53;;;2.70;;
74959;SDS011;63518;49.572;1.106;2023-06-10T14:29:29;6.18;;;3.03;;
74959;SDS011;63518;49.572;1.106;2023-06-10T14:31:58;6.57;;;2.60;;
74959;SDS011;63518;49.572;1.106;2023-06-10T14:34:25;6.05;;;2.95;;
74959;SDS011;63518;49.572;1.106;2023-06-10T14:36:55;6.35;;;2.95;;
74959;SDS011;63518;49.572;1.106;2023-06-10T14:39:22;6.60;;;2.95;;
74959;SDS011;63518;49.572;1.106;2023-06-10T14:41:49;5.30;;;2.80;;
74959;SDS011;63518;49.572;1.106;2023-06-10T14:44:16;5.43;;;2.88;;
74959;SDS011;63518;49.572;1.106;2023-06-10T14:46:43;6.22;;;3.53;;
74959;SDS011;63518;49.572;1.106;2023-06-10T14:49:10;6.20;;;2.83;;
74959;SDS011;63518;49.572;1.106;2023-06-10T14:51:37;8.45;;;3.40;;
74959;SDS011;63518;49.572;1.106;2023-06-10T14:54:03;6.65;;;3.20;;
74959;SDS011;63518;49.572;1.106;2023-06-10T14:56:31;6.13;;;3.28;;
74959;SDS011;63518;49.572;1.106;2023-06-10T14:58:57;6.05;;;3.53;;
74959;SDS011;63518;49.572;1.106;2023-06-10T15:01:24;8.45;;;3.22;;
74959;SDS011;63518;49.572;1.106;2023-06-10T15:03:51;5.75;;;2.65;;
74959;SDS011;63518;49.572;1.106;2023-06-10T15:06:18;6.22;;;3.03;;
74959;SDS011;63518;49.572;1.106;2023-06-10T15:08:47;5.45;;;3.17;;
74959;SDS011;63518;49.572;1.106;2023-06-10T15:11:16;5.75;;;3.25;;
74959;SDS011;63518;49.572;1.106;2023-06-10T15:13:43;5.50;;;3.17;;
74959;SDS011;63518;49.572;1.106;2023-06-10T15:16:10;5.60;;;2.97;;
74959;SDS011;63518;49.572;1.106;2023-06-10T15:18:37;6.85;;;3.00;;
74959;SDS011;63518;49.572;1.106;2023-06-10T15:21:04;5.90;;;3.25;;
74959;SDS011;63518;49.572;1.106;2023-06-10T15:23:31;6.35;;;3.28;;
74959;SDS011;63518;49.572;1.106;2023-06-10T15:25:58;5.90;;;3.33;;